createdAt,value
2018-09-25T00:00:17.454Z,1026.48
2018-09-25T00:01:17.432Z,1026.54
2018-09-25T00:02:17.406Z,1026.56
2018-09-25T00:03:17.385Z,1026.55
2018-09-25T00:04:17.368Z,1026.55
2018-09-25T00:05:17.343Z,1026.58
2018-09-25T00:06:17.321Z,1026.56
2018-09-25T00:07:17.297Z,1026.60
2018-09-25T00:08:17.280Z,1026.57
2018-09-25T00:09:17.255Z,1026.58
2018-09-25T00:10:17.292Z,1026.63
2018-09-25T00:11:17.229Z,1026.69
2018-09-25T00:12:17.192Z,1026.68
2018-09-25T00:13:17.172Z,1026.65
2018-09-25T00:14:17.154Z,1026.69
2018-09-25T00:15:17.128Z,1026.71
2018-09-25T00:16:17.428Z,1026.73
2018-09-25T00:17:17.086Z,1026.77
2018-09-25T00:18:17.060Z,1026.79
2018-09-25T00:19:17.038Z,1026.75
2018-09-25T00:20:17.025Z,1026.73
2018-09-25T00:21:16.998Z,1026.77
2018-09-25T00:22:16.977Z,1026.78
2018-09-25T00:23:16.954Z,1026.81
2018-09-25T00:24:16.932Z,1026.75
2018-09-25T00:25:16.913Z,1026.76
2018-09-25T00:26:16.891Z,1026.85
2018-09-25T00:27:16.874Z,1026.80
2018-09-25T00:28:16.848Z,1026.86
2018-09-25T00:29:16.826Z,1026.84
2018-09-25T00:30:17.126Z,1026.85
2018-09-25T00:31:16.781Z,1026.81
2018-09-25T00:32:16.760Z,1026.84
2018-09-25T00:33:16.734Z,1026.83
2018-09-25T00:34:16.716Z,1026.79
2018-09-25T00:35:16.694Z,1026.85
2018-09-25T00:36:16.674Z,1026.88
2018-09-25T00:37:16.650Z,1026.88
2018-09-25T00:38:16.626Z,1026.93
2018-09-25T00:39:16.608Z,1026.86
2018-09-25T00:40:16.586Z,1026.88
2018-09-25T00:41:16.629Z,1026.85
2018-09-25T00:42:16.545Z,1026.89
2018-09-25T00:43:16.518Z,1026.92
2018-09-25T00:44:16.496Z,1026.87
2018-09-25T00:45:16.480Z,1026.89
2018-09-25T00:46:16.459Z,1026.87
2018-09-25T00:47:16.438Z,1026.89
2018-09-25T00:48:16.416Z,1026.86
2018-09-25T00:49:16.391Z,1026.88
2018-09-25T00:50:16.370Z,1026.91
2018-09-25T00:51:16.344Z,1026.90
2018-09-25T00:52:16.336Z,1026.91
2018-09-25T00:53:16.306Z,1026.90
2018-09-25T00:54:16.280Z,1026.94
2018-09-25T00:55:16.262Z,1026.92
2018-09-25T00:56:16.240Z,1026.93
2018-09-25T00:57:16.215Z,1026.93
2018-09-25T00:58:16.196Z,1026.94
2018-09-25T00:59:16.174Z,1026.94
2018-09-25T01:00:16.150Z,1027.02
2018-09-25T01:01:16.127Z,1026.98
2018-09-25T01:02:16.109Z,1027.01
2018-09-25T01:03:16.088Z,1027.02
2018-09-25T01:04:16.066Z,1027.01
2018-09-25T01:05:16.045Z,1027.04
2018-09-25T01:06:16.021Z,1027.01
2018-09-25T01:07:15.995Z,1027.04
2018-09-25T01:08:15.985Z,1027.06
2018-09-25T01:09:15.953Z,1027.03
2018-09-25T01:10:15.937Z,1027.05
2018-09-25T01:11:15.915Z,1027.05
2018-09-25T01:12:15.893Z,1027.03
2018-09-25T01:13:15.869Z,1027.10
2018-09-25T01:14:15.844Z,1027.09
2018-09-25T01:15:15.827Z,1027.13
2018-09-25T01:16:15.809Z,1027.16
2018-09-25T01:17:15.783Z,1027.15
2018-09-25T01:18:15.757Z,1027.18
2018-09-25T01:19:15.802Z,1027.19
2018-09-25T01:20:15.716Z,1027.21
2018-09-25T01:21:15.691Z,1027.20
2018-09-25T01:22:15.673Z,1027.20
2018-09-25T01:23:15.651Z,1027.18
2018-09-25T01:24:15.629Z,1027.21
2018-09-25T01:25:15.610Z,1027.28
2018-09-25T01:26:15.586Z,1027.24
2018-09-25T01:27:15.561Z,1027.22
2018-09-25T01:28:15.541Z,1027.20
2018-09-25T01:29:15.515Z,1027.28
2018-09-25T01:30:15.499Z,1027.23
2018-09-25T01:31:15.483Z,1027.28
2018-09-25T01:32:15.458Z,1027.26
2018-09-25T01:33:15.435Z,1027.32
2018-09-25T01:34:15.409Z,1027.28
2018-09-25T01:35:15.389Z,1027.28
2018-09-25T01:36:15.365Z,1027.29
2018-09-25T01:37:15.342Z,1027.40
2018-09-25T01:38:15.323Z,1027.35
2018-09-25T01:39:15.297Z,1027.33
2018-09-25T01:40:15.281Z,1027.32
2018-09-25T01:41:15.257Z,1027.35
2018-09-25T01:42:15.237Z,1027.38
2018-09-25T01:43:15.223Z,1027.33
2018-09-25T01:44:15.193Z,1027.38
2018-09-25T01:45:15.169Z,1027.38
2018-09-25T01:46:15.147Z,1027.39
2018-09-25T01:47:15.124Z,1027.36
2018-09-25T01:48:15.107Z,1027.41
2018-09-25T01:49:15.086Z,1027.39
2018-09-25T01:50:15.061Z,1027.38
2018-09-25T01:51:15.039Z,1027.39
2018-09-25T01:52:15.017Z,1027.38
2018-09-25T01:53:14.994Z,1027.39
2018-09-25T01:54:14.977Z,1027.38
2018-09-25T01:55:14.955Z,1027.40
2018-09-25T01:56:14.933Z,1027.42
2018-09-25T01:57:14.913Z,1027.42
2018-09-25T01:58:14.885Z,1027.42
2018-09-25T01:59:14.865Z,1027.44
2018-09-25T02:00:14.839Z,1027.44
2018-09-25T02:01:14.827Z,1027.47
2018-09-25T02:02:14.799Z,1027.44
2018-09-25T02:03:14.775Z,1027.49
2018-09-25T02:04:14.755Z,1027.50
2018-09-25T02:05:14.731Z,1027.50
2018-09-25T02:06:14.713Z,1027.53
2018-09-25T02:07:14.685Z,1027.55
2018-09-25T02:08:14.669Z,1027.54
2018-09-25T02:09:14.643Z,1027.53
2018-09-25T02:10:14.622Z,1027.50
2018-09-25T02:11:14.600Z,1027.56
2018-09-25T02:12:14.580Z,1027.55
2018-09-25T02:13:14.559Z,1027.56
2018-09-25T02:14:14.533Z,1027.56
2018-09-25T02:15:14.517Z,1027.62
2018-09-25T02:16:14.492Z,1027.63
2018-09-25T02:17:14.473Z,1027.63
2018-09-25T02:18:14.445Z,1027.63
2018-09-25T02:19:14.425Z,1027.66
2018-09-25T02:20:14.405Z,1027.74
2018-09-25T02:21:14.379Z,1027.68
2018-09-25T02:22:14.360Z,1027.75
2018-09-25T02:23:14.339Z,1027.70
2018-09-25T02:24:14.317Z,1027.73
2018-09-25T02:25:14.295Z,1027.70
2018-09-25T02:26:14.273Z,1027.73
2018-09-25T02:27:14.251Z,1027.75
2018-09-25T02:28:14.229Z,1027.74
2018-09-25T02:29:14.205Z,1027.73
2018-09-25T02:30:14.182Z,1027.77
2018-09-25T02:31:14.159Z,1027.78
2018-09-25T02:32:14.140Z,1027.75
2018-09-25T02:33:14.114Z,1027.72
2018-09-25T02:34:14.102Z,1027.79
2018-09-25T02:35:14.079Z,1027.80
2018-09-25T02:36:14.052Z,1027.72
2018-09-25T02:37:14.036Z,1027.81
2018-09-25T02:38:14.005Z,1027.84
2018-09-25T02:39:13.988Z,1027.82
2018-09-25T02:40:13.966Z,1027.85
2018-09-25T02:41:13.940Z,1027.86
2018-09-25T02:42:13.922Z,1027.85
2018-09-25T02:43:13.895Z,1027.89
2018-09-25T02:44:13.877Z,1027.85
2018-09-25T02:45:13.854Z,1027.88
2018-09-25T02:46:13.833Z,1027.89
2018-09-25T02:47:13.814Z,1027.92
2018-09-25T02:48:13.791Z,1027.89
2018-09-25T02:49:13.761Z,1027.90
2018-09-25T02:50:13.749Z,1027.88
2018-09-25T02:51:13.726Z,1027.90
2018-09-25T02:52:13.703Z,1027.95
2018-09-25T02:53:13.679Z,1027.96
2018-09-25T02:54:13.664Z,1027.86
2018-09-25T02:55:13.634Z,1027.94
2018-09-25T02:56:13.615Z,1027.91
2018-09-25T02:57:13.589Z,1027.89
2018-09-25T02:58:13.567Z,1027.99
2018-09-25T02:59:13.547Z,1027.98
2018-09-25T03:00:13.526Z,1027.95
2018-09-25T03:01:13.497Z,1027.96
2018-09-25T03:02:13.482Z,1027.98
2018-09-25T03:03:13.462Z,1027.97
2018-09-25T03:04:13.440Z,1028.04
2018-09-25T03:05:13.411Z,1027.99
2018-09-25T03:06:13.394Z,1028.02
2018-09-25T03:07:13.369Z,1028.03
2018-09-25T03:08:13.345Z,1028.02
2018-09-25T03:09:13.326Z,1028.06
2018-09-25T03:10:13.312Z,1028.10
2018-09-25T03:11:13.291Z,1028.06
2018-09-25T03:12:13.258Z,1028.09
2018-09-25T03:13:13.238Z,1028.15
2018-09-25T03:14:13.223Z,1028.17
2018-09-25T03:15:13.206Z,1028.18
2018-09-25T03:16:13.177Z,1028.16
2018-09-25T03:17:13.151Z,1028.19
2018-09-25T03:18:13.134Z,1028.19
2018-09-25T03:19:13.189Z,1028.20
2018-09-25T03:20:13.083Z,1028.22
2018-09-25T03:21:13.063Z,1028.23
2018-09-25T03:22:13.040Z,1028.24
2018-09-25T03:23:13.027Z,1028.24
2018-09-25T03:24:12.998Z,1028.25
2018-09-25T03:25:12.972Z,1028.28
2018-09-25T03:26:12.951Z,1028.23
2018-09-25T03:27:12.934Z,1028.26
2018-09-25T03:28:12.906Z,1028.27
2018-09-25T03:29:12.885Z,1028.34
2018-09-25T03:30:12.861Z,1028.28
2018-09-25T03:31:12.842Z,1028.34
2018-09-25T03:32:12.823Z,1028.34
2018-09-25T03:33:12.794Z,1028.33
2018-09-25T03:34:12.774Z,1028.32
2018-09-25T03:35:12.750Z,1028.32
2018-09-25T03:36:12.735Z,1028.35
2018-09-25T03:37:12.706Z,1028.35
2018-09-25T03:38:12.687Z,1028.33
2018-09-25T03:39:12.665Z,1028.35
2018-09-25T03:40:12.640Z,1028.33
2018-09-25T03:41:12.625Z,1028.28
2018-09-25T03:42:12.602Z,1028.34
2018-09-25T03:43:12.577Z,1028.35
2018-09-25T03:44:12.551Z,1028.29
2018-09-25T03:45:12.534Z,1028.34
2018-09-25T03:46:12.510Z,1028.32
2018-09-25T03:47:12.494Z,1028.34
2018-09-25T03:48:12.466Z,1028.26
2018-09-25T03:49:12.457Z,1028.30
2018-09-25T03:50:12.418Z,1028.30
2018-09-25T03:51:12.400Z,1028.35
2018-09-25T03:52:12.379Z,1028.35
2018-09-25T03:53:12.353Z,1028.37
2018-09-25T03:54:12.331Z,1028.35
2018-09-25T03:55:12.315Z,1028.33
2018-09-25T03:56:12.291Z,1028.36
2018-09-25T03:57:12.272Z,1028.35
2018-09-25T03:58:12.247Z,1028.39
2018-09-25T03:59:12.223Z,1028.44
2018-09-25T04:00:12.199Z,1028.43
2018-09-25T04:01:12.180Z,1028.45
2018-09-25T04:02:12.153Z,1028.44
2018-09-25T04:03:12.140Z,1028.51
2018-09-25T04:04:12.113Z,1028.55
2018-09-25T04:05:12.089Z,1028.54
2018-09-25T04:06:12.105Z,1028.51
2018-09-25T04:07:12.047Z,1028.56
2018-09-25T04:08:12.029Z,1028.54
2018-09-25T04:09:12.001Z,1028.59
2018-09-25T04:10:11.979Z,1028.61
2018-09-25T04:11:11.961Z,1028.64
2018-09-25T04:12:11.937Z,1028.69
2018-09-25T04:13:11.909Z,1028.68
2018-09-25T04:14:11.891Z,1028.70
2018-09-25T04:15:11.869Z,1028.71
2018-09-25T04:16:11.847Z,1028.78
2018-09-25T04:17:11.825Z,1028.74
2018-09-25T04:18:11.807Z,1028.78
2018-09-25T04:19:11.786Z,1028.82
2018-09-25T04:20:11.759Z,1028.85
2018-09-25T04:21:11.739Z,1028.84
2018-09-25T04:22:11.717Z,1028.83
2018-09-25T04:23:11.688Z,1028.85
2018-09-25T04:24:11.673Z,1028.87
2018-09-25T04:25:11.647Z,1028.90
2018-09-25T04:26:11.622Z,1028.93
2018-09-25T04:27:11.604Z,1028.95
2018-09-25T04:28:11.584Z,1028.93
2018-09-25T04:29:11.557Z,1028.91
2018-09-25T04:30:11.539Z,1028.90
2018-09-25T04:31:11.517Z,1028.92
2018-09-25T04:32:11.495Z,1028.94
2018-09-25T04:33:11.473Z,1029.00
2018-09-25T04:34:11.450Z,1028.99
2018-09-25T04:35:11.427Z,1029.01
2018-09-25T04:36:11.407Z,1029.01
2018-09-25T04:37:11.435Z,1029.07
2018-09-25T04:38:11.359Z,1029.05
2018-09-25T04:39:11.337Z,1029.08
2018-09-25T04:40:11.317Z,1029.07
2018-09-25T04:41:11.295Z,1029.10
2018-09-25T04:42:11.269Z,1029.11
2018-09-25T04:43:11.251Z,1029.14
2018-09-25T04:44:11.237Z,1029.14
2018-09-25T04:45:11.204Z,1029.14
2018-09-25T04:46:11.183Z,1029.20
2018-09-25T04:47:11.159Z,1029.20
2018-09-25T04:48:11.142Z,1029.23
2018-09-25T04:49:11.116Z,1029.24
2018-09-25T04:50:11.097Z,1029.19
2018-09-25T04:51:11.077Z,1029.27
2018-09-25T04:52:11.052Z,1029.27
2018-09-25T04:53:11.026Z,1029.31
2018-09-25T04:54:11.005Z,1029.22
2018-09-25T04:55:10.983Z,1029.34
2018-09-25T04:56:10.975Z,1029.31
2018-09-25T04:57:11.094Z,1029.32
2018-09-25T04:58:10.912Z,1029.33
2018-09-25T04:59:10.891Z,1029.33
2018-09-25T05:00:10.876Z,1029.35
2018-09-25T05:01:10.855Z,1029.37
2018-09-25T05:02:10.825Z,1029.37
2018-09-25T05:03:10.807Z,1029.37
2018-09-25T05:04:10.783Z,1029.44
2018-09-25T05:05:10.762Z,1029.40
2018-09-25T05:06:10.740Z,1029.45
2018-09-25T05:07:10.723Z,1029.45
2018-09-25T05:08:10.698Z,1029.43
2018-09-25T05:09:10.673Z,1029.46
2018-09-25T05:10:10.650Z,1029.45
2018-09-25T05:11:10.633Z,1029.44
2018-09-25T05:12:10.663Z,1029.45
2018-09-25T05:13:10.588Z,1029.44
2018-09-25T05:14:10.561Z,1029.46
2018-09-25T05:15:10.542Z,1029.48
2018-09-25T05:16:10.519Z,1029.48
2018-09-25T05:17:10.491Z,1029.51
2018-09-25T05:18:10.479Z,1029.50
2018-09-25T05:19:10.448Z,1029.50
2018-09-25T05:20:10.433Z,1029.54
2018-09-25T05:21:10.408Z,1029.49
2018-09-25T05:22:10.383Z,1029.52
2018-09-25T05:23:10.363Z,1029.52
2018-09-25T05:24:10.339Z,1029.57
2018-09-25T05:25:10.316Z,1029.56
2018-09-25T05:26:10.291Z,1029.60
2018-09-25T05:27:10.272Z,1029.55
2018-09-25T05:28:10.246Z,1029.61
2018-09-25T05:29:10.232Z,1029.64
2018-09-25T05:30:10.207Z,1029.67
2018-09-25T05:31:10.180Z,1029.67
2018-09-25T05:32:10.160Z,1029.70
2018-09-25T05:33:10.140Z,1029.70
2018-09-25T05:34:10.115Z,1029.72
2018-09-25T05:35:10.096Z,1029.74
2018-09-25T05:36:10.072Z,1029.72
2018-09-25T05:37:10.050Z,1029.77
2018-09-25T05:38:10.028Z,1029.76
2018-09-25T05:39:10.004Z,1029.76
2018-09-25T05:40:09.984Z,1029.78
2018-09-25T05:41:09.959Z,1029.79
2018-09-25T05:42:09.944Z,1029.81
2018-09-25T05:43:09.916Z,1029.81
2018-09-25T05:44:09.894Z,1029.84
2018-09-25T05:45:09.875Z,1029.80
2018-09-25T05:46:09.850Z,1029.83
2018-09-25T05:47:09.829Z,1029.82
2018-09-25T05:48:09.818Z,1029.82
2018-09-25T05:49:09.781Z,1029.84
2018-09-25T05:50:09.765Z,1029.83
2018-09-25T05:51:09.739Z,1029.87
2018-09-25T05:52:09.718Z,1029.92
2018-09-25T05:53:09.696Z,1029.90
2018-09-25T05:54:09.672Z,1029.91
2018-09-25T05:55:09.651Z,1029.96
2018-09-25T05:56:09.626Z,1029.96
2018-09-25T05:57:09.606Z,1029.98
2018-09-25T05:58:09.589Z,1030.00
2018-09-25T05:59:09.563Z,1029.99
2018-09-25T06:00:09.543Z,1030.01
2018-09-25T06:01:09.623Z,1030.05
2018-09-25T06:02:09.496Z,1030.05
2018-09-25T06:03:09.478Z,1030.07
2018-09-25T06:04:09.453Z,1030.11
2018-09-25T06:05:09.423Z,1030.06
2018-09-25T06:06:09.406Z,1030.12
2018-09-25T06:07:09.383Z,1030.07
2018-09-25T06:08:09.365Z,1030.11
2018-09-25T06:09:09.393Z,1030.12
2018-09-25T06:10:09.318Z,1030.13
2018-09-25T06:11:09.298Z,1030.16
2018-09-25T06:12:09.281Z,1030.16
2018-09-25T06:13:09.252Z,1030.17
2018-09-25T06:14:09.228Z,1030.18
2018-09-25T06:15:09.207Z,1030.18
2018-09-25T06:16:09.190Z,1030.25
2018-09-25T06:17:09.166Z,1030.28
2018-09-25T06:18:09.141Z,1030.23
2018-09-25T06:19:09.127Z,1030.26
2018-09-25T06:20:09.105Z,1030.31
2018-09-25T06:21:09.074Z,1030.27
2018-09-25T06:22:09.053Z,1030.33
2018-09-25T06:23:09.157Z,1030.31
2018-09-25T06:24:09.013Z,1030.31
2018-09-25T06:25:08.987Z,1030.32
2018-09-25T06:26:08.963Z,1030.36
2018-09-25T06:27:08.943Z,1030.38
2018-09-25T06:28:08.921Z,1030.41
2018-09-25T06:29:08.900Z,1030.42
2018-09-25T06:30:08.878Z,1030.40
2018-09-25T06:31:08.858Z,1030.47
2018-09-25T06:32:08.832Z,1030.50
2018-09-25T06:33:08.809Z,1030.52
2018-09-25T06:34:08.785Z,1030.47
2018-09-25T06:35:08.767Z,1030.57
2018-09-25T06:36:08.749Z,1030.55
2018-09-25T06:37:08.748Z,1030.57
2018-09-25T06:38:08.706Z,1030.66
2018-09-25T06:39:08.683Z,1030.60
2018-09-25T06:40:08.657Z,1030.60
2018-09-25T06:41:08.633Z,1030.63
2018-09-25T06:42:08.615Z,1030.60
2018-09-25T06:43:08.590Z,1030.64
2018-09-25T06:44:08.577Z,1030.65
2018-09-25T06:45:08.556Z,1030.71
2018-09-25T06:46:08.530Z,1030.71
2018-09-25T06:47:08.569Z,1030.69
2018-09-25T06:48:08.488Z,1030.72
2018-09-25T06:49:08.462Z,1030.74
2018-09-25T06:50:08.439Z,1030.77
2018-09-25T06:51:08.417Z,1030.78
2018-09-25T06:52:08.399Z,1030.78
2018-09-25T06:53:08.379Z,1030.79
2018-09-25T06:54:08.357Z,1030.80
2018-09-25T06:55:08.388Z,1030.82
2018-09-25T06:56:08.314Z,1030.84
2018-09-25T06:57:08.289Z,1030.85
2018-09-25T06:58:08.272Z,1030.87
2018-09-25T06:59:08.246Z,1030.90
2018-09-25T07:00:08.239Z,1030.91
2018-09-25T07:01:08.201Z,1030.95
2018-09-25T07:02:08.181Z,1030.93
2018-09-25T07:03:08.161Z,1030.94
2018-09-25T07:04:08.142Z,1030.91
2018-09-25T07:05:08.126Z,1030.91
2018-09-25T07:06:08.098Z,1030.92
2018-09-25T07:07:08.081Z,1031.02
2018-09-25T07:08:08.054Z,1031.03
2018-09-25T07:09:08.040Z,1031.00
2018-09-25T07:10:08.195Z,1031.04
2018-09-25T07:11:07.993Z,1031.11
2018-09-25T07:12:07.982Z,1031.12
2018-09-25T07:13:07.948Z,1031.11
2018-09-25T07:14:07.937Z,1031.13
2018-09-25T07:15:07.915Z,1031.17
2018-09-25T07:16:07.898Z,1031.18
2018-09-25T07:17:07.875Z,1031.21
2018-09-25T07:18:07.949Z,1031.26
2018-09-25T07:19:07.830Z,1031.27
2018-09-25T07:20:07.806Z,1031.34
2018-09-25T07:21:07.784Z,1031.37
2018-09-25T07:22:07.768Z,1031.46
2018-09-25T07:23:07.750Z,1031.55
2018-09-25T07:24:07.723Z,1031.60
2018-09-25T07:25:07.790Z,1031.66
2018-09-25T07:26:07.684Z,1031.67
2018-09-25T07:27:07.665Z,1031.83
2018-09-25T07:28:07.644Z,1031.89
2018-09-25T07:29:07.626Z,1031.93
2018-09-25T07:30:07.606Z,1032.01
2018-09-25T07:31:07.723Z,1032.11
2018-09-25T07:32:07.573Z,1031.99
2018-09-25T07:33:07.542Z,1031.71
2018-09-25T07:34:07.530Z,1031.63
2018-09-25T07:35:07.512Z,1031.59
2018-09-25T07:36:07.490Z,1031.61
2018-09-25T07:37:07.469Z,1031.63
2018-09-25T07:38:07.446Z,1031.59
2018-09-25T07:39:07.430Z,1031.62
2018-09-25T07:40:07.410Z,1031.66
2018-09-25T07:41:07.395Z,1032.05
2018-09-25T07:42:07.372Z,1032.45
2018-09-25T07:43:07.358Z,1032.48
2018-09-25T07:44:07.340Z,1032.53
2018-09-25T07:45:07.316Z,1032.35
2018-09-25T07:46:07.295Z,1032.23
2018-09-25T07:47:07.283Z,1032.06
2018-09-25T07:48:07.271Z,1032.71
2018-09-25T07:49:07.242Z,1032.86
2018-09-25T07:50:07.230Z,1032.97
2018-09-25T07:51:07.206Z,1032.88
2018-09-25T07:52:07.190Z,1032.81
2018-09-25T07:53:07.169Z,1032.88
2018-09-25T07:54:07.161Z,1033.27
2018-09-25T07:55:07.166Z,1033.40
2018-09-25T07:56:07.122Z,1033.39
2018-09-25T07:57:07.107Z,1033.58
2018-09-25T07:58:07.092Z,1033.83
2018-09-25T07:59:07.074Z,1034.10
2018-09-25T08:00:07.056Z,1034.37
2018-09-25T08:01:07.040Z,1034.63
2018-09-25T08:02:07.026Z,1034.91
2018-09-25T08:03:07.044Z,1035.17
2018-09-25T08:04:06.992Z,1035.23
2018-09-25T08:05:06.976Z,1035.35
2018-09-25T08:06:06.966Z,1035.37
2018-09-25T08:07:06.946Z,1035.24
2018-09-25T08:08:06.931Z,1035.31
2018-09-25T08:09:06.972Z,1035.11
2018-09-25T08:10:06.906Z,1032.69
2018-09-25T08:11:06.892Z,1034.36
2018-09-25T08:12:06.878Z,1035.07
2018-09-25T08:13:06.860Z,1036.08
2018-09-25T08:14:06.848Z,1035.02
2018-09-25T08:15:06.834Z,1035.85
2018-09-25T08:16:06.820Z,1036.71
2018-09-25T08:17:06.804Z,1036.00
2018-09-25T08:18:06.791Z,1035.54
2018-09-25T08:19:06.782Z,1035.12
2018-09-25T08:20:06.765Z,1035.15
2018-09-25T08:21:06.753Z,1035.56
2018-09-25T08:22:06.741Z,1035.87
2018-09-25T08:23:06.725Z,1036.20
2018-09-25T08:24:06.716Z,1036.77
2018-09-25T08:25:06.747Z,1036.38
2018-09-25T08:26:06.682Z,1035.28
2018-09-25T08:27:06.673Z,1033.64
2018-09-25T08:28:06.660Z,1032.58
2018-09-25T08:29:06.644Z,1032.26
2018-09-25T08:30:06.634Z,1032.28
2018-09-25T08:31:06.632Z,1032.25
2018-09-25T08:32:06.609Z,1032.26
2018-09-25T08:33:06.594Z,1032.27
2018-09-25T08:34:06.606Z,1032.23
2018-09-25T08:35:06.641Z,1032.27
2018-09-25T08:36:06.569Z,1032.24
2018-09-25T08:37:06.546Z,1032.24
2018-09-25T08:38:06.534Z,1032.33
2018-09-25T08:39:06.551Z,1032.22
2018-09-25T08:40:06.508Z,1032.24
2018-09-25T08:41:06.496Z,1032.25
2018-09-25T08:42:06.480Z,1032.32
2018-09-25T08:43:06.465Z,1032.32
2018-09-25T08:44:06.451Z,1032.33
2018-09-25T08:45:06.440Z,1032.28
2018-09-25T08:46:06.429Z,1032.30
2018-09-25T08:47:06.418Z,1032.28
2018-09-25T08:48:06.404Z,1032.30
2018-09-25T08:49:06.397Z,1032.38
2018-09-25T08:50:06.374Z,1032.34
2018-09-25T08:51:06.362Z,1032.40
2018-09-25T08:52:06.366Z,1032.46
2018-09-25T08:53:06.337Z,1032.39
2018-09-25T08:54:48.088Z,1032.43
2018-09-25T08:55:06.314Z,1032.42
2018-09-25T08:56:06.295Z,1032.37
2018-09-25T08:57:06.283Z,1032.39
2018-09-25T08:58:06.276Z,1032.41
2018-09-25T08:59:06.256Z,1032.38
2018-09-25T09:00:06.242Z,1032.40
2018-09-25T09:01:09.864Z,1032.42
2018-09-25T09:05:27.107Z,1032.48
2018-09-25T09:06:27.099Z,1032.49
2018-09-25T09:07:27.079Z,1032.49
2018-09-25T09:08:27.142Z,1032.48
2018-09-25T09:09:27.055Z,1032.54
2018-09-25T09:10:27.044Z,1032.56
2018-09-25T09:11:27.133Z,1032.58
2018-09-25T09:12:27.016Z,1032.59
2018-09-25T09:13:27.007Z,1032.62
2018-09-25T09:14:26.991Z,1032.56
2018-09-25T09:15:26.981Z,1032.62
2018-09-25T09:16:26.968Z,1032.68
2018-09-25T09:17:26.955Z,1032.67
2018-09-25T09:18:26.946Z,1032.61
2018-09-25T09:19:26.931Z,1032.67
2018-09-25T09:20:26.917Z,1032.50
2018-09-25T09:21:26.914Z,1032.68
2018-09-25T09:22:26.896Z,1032.75
2018-09-25T09:23:26.883Z,1032.74
2018-09-25T09:24:26.867Z,1032.72
2018-09-25T09:25:26.855Z,1032.64
2018-09-25T09:26:26.842Z,1032.53
2018-09-25T09:27:26.837Z,1032.67
2018-09-25T09:28:26.818Z,1032.75
2018-09-25T09:29:26.813Z,1032.77
2018-09-25T09:30:26.799Z,1032.60
2018-09-25T09:31:26.785Z,1032.71
2018-09-25T09:32:26.769Z,1032.68
2018-09-25T09:33:26.757Z,1032.69
2018-09-25T09:34:26.746Z,1032.69
2018-09-25T09:35:26.734Z,1032.85
2018-09-25T09:36:26.729Z,1032.86
2018-09-25T09:37:26.714Z,1032.87
2018-09-25T09:38:26.700Z,1032.77
2018-09-25T09:40:26.679Z,1032.76
2018-09-25T09:41:26.754Z,1032.78
2018-09-25T09:42:26.650Z,1032.81
2018-09-25T09:43:26.641Z,1032.66
2018-09-25T09:44:26.625Z,1032.61
2018-09-25T09:45:26.617Z,1032.65
2018-09-25T09:46:26.606Z,1032.66
2018-09-25T09:47:26.595Z,1032.92
2018-09-25T09:48:26.581Z,1032.76
2018-09-25T09:49:26.571Z,1032.92
2018-09-25T09:50:26.615Z,1032.99
2018-09-25T09:51:26.545Z,1032.97
2018-09-25T09:52:26.537Z,1032.71
2018-09-25T09:53:26.525Z,1032.77
2018-09-25T09:54:26.516Z,1033.05
2018-09-25T09:55:26.504Z,1033.06
2018-09-25T09:56:26.547Z,1032.93
2018-09-25T09:57:26.480Z,1032.89
2018-09-25T09:58:26.471Z,1032.88
2018-09-25T09:59:26.463Z,1032.88
2018-09-25T10:00:26.446Z,1032.89
2018-09-25T10:01:26.437Z,1032.72
2018-09-25T10:02:26.433Z,1032.73
2018-09-25T10:03:26.413Z,1032.97
2018-09-25T10:04:26.405Z,1033.01
2018-09-25T10:05:26.395Z,1033.08
2018-09-25T10:06:26.381Z,1033.02
2018-09-25T10:07:26.375Z,1033.09
2018-09-25T10:08:26.359Z,1033.02
2018-09-25T10:09:26.351Z,1033.05
2018-09-25T10:10:26.343Z,1033.02
2018-09-25T10:11:26.330Z,1033.13
2018-09-25T10:12:26.353Z,1032.81
2018-09-25T10:13:26.310Z,1032.84
2018-09-25T10:14:26.300Z,1032.84
2018-09-25T10:15:26.297Z,1032.81
2018-09-25T10:16:26.287Z,1032.84
2018-09-25T10:17:26.274Z,1032.93
2018-09-25T10:18:26.262Z,1033.28
2018-09-25T10:19:26.249Z,1033.21
2018-09-25T10:20:26.243Z,1033.10
2018-09-25T10:21:26.230Z,1033.07
2018-09-25T10:22:26.222Z,1033.10
2018-09-25T10:23:26.212Z,1033.07
2018-09-25T10:24:26.203Z,1033.08
2018-09-25T10:25:26.195Z,1033.10
2018-09-25T10:26:26.183Z,1033.06
2018-09-25T10:27:26.482Z,1033.04
2018-09-25T10:28:26.163Z,1033.13
2018-09-25T10:29:26.157Z,1033.11
2018-09-25T10:30:26.149Z,1033.09
2018-09-25T10:31:26.141Z,1033.12
2018-09-25T10:32:26.129Z,1033.13
2018-09-25T10:33:26.121Z,1033.14
2018-09-25T10:34:26.114Z,1033.15
2018-09-25T10:35:26.104Z,1033.13
2018-09-25T10:36:26.101Z,1033.20
2018-09-25T10:37:26.096Z,1033.18
2018-09-25T10:38:26.082Z,1033.28
2018-09-25T10:39:26.077Z,1033.36
2018-09-25T10:40:26.070Z,1033.41
2018-09-25T10:41:26.059Z,1033.03
2018-09-25T10:42:26.048Z,1033.03
2018-09-25T10:43:26.046Z,1032.99
2018-09-25T10:44:26.033Z,1033.38
2018-09-25T10:45:26.029Z,1033.47
2018-09-25T10:46:26.021Z,1033.40
2018-09-25T10:47:26.015Z,1033.90
2018-09-25T10:48:26.008Z,1033.01
2018-09-25T10:49:25.998Z,1032.99
2018-09-25T10:50:25.989Z,1034.18
2018-09-25T10:51:25.987Z,1034.26
2018-09-25T10:52:25.980Z,1034.21
2018-09-25T10:53:25.977Z,1034.35
2018-09-25T10:54:25.968Z,1034.31
2018-09-25T10:55:25.995Z,1034.32
2018-09-25T10:56:25.952Z,1034.39
2018-09-25T10:57:25.946Z,1034.42
2018-09-25T10:58:25.949Z,1034.44
2018-09-25T10:59:25.931Z,1034.46
2018-09-25T11:00:25.935Z,1034.47
2018-09-25T11:01:25.921Z,1034.53
2018-09-25T11:02:25.915Z,1034.47
2018-09-25T11:03:25.911Z,1034.59
2018-09-25T11:04:25.919Z,1034.69
2018-09-25T11:05:25.897Z,1034.71
2018-09-25T11:06:25.891Z,1034.72
2018-09-25T11:07:25.887Z,1034.71
2018-09-25T11:08:25.888Z,1034.69
2018-09-25T11:09:25.875Z,1034.71
2018-09-25T11:10:25.875Z,1034.74
2018-09-25T11:11:25.866Z,1034.75
2018-09-25T11:12:25.863Z,1034.58
2018-09-25T11:13:25.852Z,1034.57
2018-09-25T11:14:25.847Z,1034.53
2018-09-25T11:15:25.845Z,1034.56
2018-09-25T11:16:25.839Z,1034.44
2018-09-25T11:17:25.833Z,1034.59
2018-09-25T11:18:25.833Z,1034.57
2018-09-25T11:19:25.825Z,1034.58
2018-09-25T11:20:25.821Z,1034.60
2018-09-25T11:21:25.821Z,1034.61
2018-09-25T11:22:25.811Z,1034.57
2018-09-25T11:23:25.805Z,1034.54
2018-09-25T11:24:25.799Z,1034.51
2018-09-25T11:25:25.839Z,1034.53
2018-09-25T11:26:25.789Z,1034.45
2018-09-25T11:27:25.784Z,1034.52
2018-09-25T11:28:25.790Z,1034.50
2018-09-25T11:29:25.781Z,1034.53
2018-09-25T11:30:25.775Z,1034.41
2018-09-25T11:31:25.767Z,1034.42
2018-09-25T11:32:25.771Z,1034.30
2018-09-25T11:33:25.764Z,1034.26
2018-09-25T11:34:25.755Z,1034.25
2018-09-25T11:35:25.787Z,1034.25
2018-09-25T11:36:25.750Z,1034.31
2018-09-25T11:37:25.744Z,1034.25
2018-09-25T11:38:25.737Z,1034.17
2018-09-25T11:39:25.741Z,1033.15
2018-09-25T11:40:25.731Z,1034.02
2018-09-25T11:41:25.881Z,1033.69
2018-09-25T11:42:25.723Z,1033.31
2018-09-25T11:43:25.715Z,1033.35
2018-09-25T11:44:25.715Z,1033.40
2018-09-25T11:45:25.713Z,1033.38
2018-09-25T11:46:25.711Z,1033.42
2018-09-25T11:47:25.712Z,1033.42
2018-09-25T11:48:25.703Z,1033.36
2018-09-25T11:49:25.708Z,1033.93
2018-09-25T11:50:25.689Z,1033.33
2018-09-25T11:51:25.680Z,1034.06
2018-09-25T11:52:25.681Z,1034.13
2018-09-25T11:53:25.678Z,1033.68
2018-09-25T11:54:25.671Z,1033.90
2018-09-25T11:55:25.670Z,1033.16
2018-09-25T11:56:25.726Z,1034.13
2018-09-25T11:57:25.658Z,1034.11
2018-09-25T11:58:25.683Z,1033.34
2018-09-25T11:59:25.641Z,1034.02
2018-09-25T12:00:25.641Z,1034.00
2018-09-25T12:01:25.634Z,1034.06
2018-09-25T12:02:25.626Z,1033.22
2018-09-25T12:03:25.624Z,1033.17
2018-09-25T12:04:25.648Z,1033.23
2018-09-25T12:05:25.618Z,1033.21
2018-09-25T12:06:25.617Z,1033.26
2018-09-25T12:07:25.607Z,1034.16
2018-09-25T12:08:25.604Z,1034.10
2018-09-25T12:09:25.595Z,1033.38